createdAt,value
2023-04-10T00:01:41.053Z,11.84
2023-04-10T00:04:15.424Z,11.86
2023-04-10T00:06:49.629Z,11.87
2023-04-10T00:09:23.150Z,11.88
2023-04-10T00:11:57.326Z,11.87
2023-04-10T00:14:31.246Z,11.85
2023-04-10T00:17:04.947Z,11.84
2023-04-10T00:19:39.180Z,11.83
2023-04-10T00:22:12.795Z,11.82
2023-04-10T00:24:46.511Z,11.83
2023-04-10T00:27:20.489Z,11.82
2023-04-10T00:29:54.161Z,11.82
2023-04-10T00:32:28.052Z,11.83
2023-04-10T00:35:02.085Z,11.85
2023-04-10T00:37:36.237Z,11.86
2023-04-10T00:40:11.617Z,11.88
2023-04-10T00:42:45.149Z,11.88
2023-04-10T00:45:19.003Z,11.90
2023-04-10T00:47:53.043Z,11.91
2023-04-10T00:50:26.901Z,11.93
2023-04-10T00:53:00.902Z,11.96
2023-04-10T00:55:34.926Z,11.97
2023-04-10T00:58:08.681Z,11.97
2023-04-10T01:00:42.817Z,11.96
2023-04-10T01:03:17.912Z,11.96
2023-04-10T01:05:57.729Z,11.97
2023-04-10T01:08:36.863Z,11.96
2023-04-10T01:11:15.267Z,11.96
2023-04-10T01:13:52.771Z,11.95
2023-04-10T01:16:29.540Z,11.95
2023-04-10T01:19:07.017Z,11.92
2023-04-10T01:21:42.123Z,11.91
2023-04-10T01:24:30.317Z,11.90
2023-04-10T01:27:14.693Z,11.89
2023-04-10T01:29:51.256Z,11.88
2023-04-10T01:32:26.173Z,11.87
2023-04-10T01:35:01.594Z,11.87
2023-04-10T01:37:36.413Z,11.85
2023-04-10T01:40:13.555Z,11.83
2023-04-10T01:42:49.740Z,11.82
2023-04-10T01:45:26.418Z,11.82
2023-04-10T01:48:00.704Z,11.81
2023-04-10T01:50:35.746Z,11.81
2023-04-10T01:53:10.731Z,11.82
2023-04-10T01:55:45.752Z,11.81
2023-04-10T01:58:19.734Z,11.80
2023-04-10T02:00:53.421Z,11.78
2023-04-10T02:03:27.104Z,11.77
2023-04-10T02:06:20.123Z,11.75
2023-04-10T02:08:57.598Z,11.72
2023-04-10T02:11:39.471Z,11.69
2023-04-10T02:14:15.799Z,11.65
2023-04-10T02:16:50.266Z,11.60
2023-04-10T02:19:25.062Z,11.56
2023-04-10T02:21:59.212Z,11.56
2023-04-10T02:24:33.788Z,11.56
2023-04-10T02:27:07.898Z,11.56
2023-04-10T02:29:41.496Z,11.56
2023-04-10T02:32:17.820Z,11.55
2023-04-10T02:34:52.018Z,11.54
2023-04-10T02:37:26.243Z,11.53
2023-04-10T02:39:59.786Z,11.55
2023-04-10T02:42:33.661Z,11.57
2023-04-10T02:45:11.334Z,11.59
2023-04-10T02:47:45.452Z,11.60
2023-04-10T02:50:19.535Z,11.59
2023-04-10T02:52:53.423Z,11.59
2023-04-10T02:55:26.935Z,11.60
2023-04-10T02:58:00.869Z,11.61
2023-04-10T03:00:34.838Z,11.61
2023-04-10T03:03:09.235Z,11.58
2023-04-10T03:05:43.008Z,11.56
2023-04-10T03:08:16.620Z,11.56
2023-04-10T03:10:51.056Z,11.57
2023-04-10T03:13:25.323Z,11.59
2023-04-10T03:15:59.587Z,11.59
2023-04-10T03:18:35.161Z,11.59
2023-04-10T03:21:09.885Z,11.62
2023-04-10T03:23:43.618Z,11.64
2023-04-10T03:26:17.483Z,11.71
2023-04-10T03:28:51.351Z,11.78
2023-04-10T03:31:26.119Z,11.82
2023-04-10T03:34:01.219Z,11.87
2023-04-10T03:36:35.757Z,11.96
2023-04-10T03:39:09.671Z,12.06
2023-04-10T03:41:44.481Z,12.19
2023-04-10T03:44:18.736Z,12.35
2023-04-10T03:46:53.599Z,12.50
2023-04-10T03:49:27.775Z,12.65
2023-04-10T03:52:04.271Z,12.76
2023-04-10T03:54:41.233Z,12.85
2023-04-10T03:57:13.138Z,12.97
2023-04-10T03:59:46.895Z,13.10
2023-04-10T04:02:21.289Z,13.24
2023-04-10T04:04:57.634Z,13.38
2023-04-10T04:07:31.379Z,13.47
2023-04-10T04:10:05.555Z,13.60
2023-04-10T04:12:39.530Z,13.77
2023-04-10T04:15:14.403Z,13.98
2023-04-10T04:17:48.530Z,14.23
2023-04-10T04:20:22.346Z,14.46
2023-04-10T04:22:56.059Z,14.69
2023-04-10T04:25:30.013Z,14.86
2023-04-10T04:28:03.905Z,15.00
2023-04-10T04:30:38.579Z,15.08
2023-04-10T04:33:12.406Z,15.17
2023-04-10T04:35:46.442Z,15.23
2023-04-10T04:38:20.607Z,15.31
2023-04-10T04:40:54.217Z,15.35
2023-04-10T04:43:27.997Z,15.42
2023-04-10T04:46:02.877Z,15.52
2023-04-10T04:48:37.273Z,15.65
2023-04-10T04:51:11.913Z,15.69
2023-04-10T04:53:45.603Z,15.73
2023-04-10T04:56:19.591Z,15.84
2023-04-10T04:58:53.405Z,15.93
2023-04-10T05:01:27.859Z,15.84
2023-04-10T05:04:01.832Z,15.73
2023-04-10T05:06:35.909Z,15.66
2023-04-10T05:09:10.150Z,15.65
2023-04-10T05:11:43.726Z,15.76
2023-04-10T05:14:17.453Z,16.05
2023-04-10T05:16:51.204Z,16.37
2023-04-10T05:19:25.209Z,16.50
2023-04-10T05:21:58.868Z,16.55
2023-04-10T05:24:32.784Z,16.66
2023-04-10T05:27:07.500Z,16.78
2023-04-10T05:29:40.975Z,16.87
2023-04-10T05:32:15.810Z,16.90
2023-04-10T05:34:49.331Z,16.90
2023-04-10T05:37:23.136Z,17.08
2023-04-10T05:39:58.441Z,17.35
2023-04-10T05:42:32.046Z,17.62
2023-04-10T05:45:06.004Z,17.84
2023-04-10T05:47:40.323Z,17.95
2023-04-10T05:50:14.455Z,17.76
2023-04-10T05:52:49.113Z,17.71
2023-04-10T05:55:23.642Z,17.72
2023-04-10T05:57:57.640Z,17.92
2023-04-10T06:00:31.225Z,18.36
2023-04-10T06:03:05.213Z,18.75
2023-04-10T06:05:39.417Z,18.83
2023-04-10T06:08:13.629Z,18.85
2023-04-10T06:10:47.976Z,18.96
2023-04-10T06:13:22.154Z,19.31
2023-04-10T06:15:56.069Z,19.97
2023-04-10T06:18:30.258Z,20.50
2023-04-10T06:21:03.851Z,20.74
2023-04-10T06:23:37.720Z,21.00
2023-04-10T06:26:11.899Z,21.26
2023-04-10T06:28:46.101Z,21.45
2023-04-10T06:31:20.299Z,21.47
2023-04-10T06:33:54.261Z,21.55
2023-04-10T06:36:28.150Z,21.46
2023-04-10T06:39:03.118Z,21.55
2023-04-10T06:41:36.877Z,21.78
2023-04-10T06:44:10.616Z,22.01
2023-04-10T06:46:44.267Z,22.28
2023-04-10T06:49:18.407Z,22.48
2023-04-10T06:51:52.942Z,22.48
2023-04-10T06:54:26.973Z,22.59
2023-04-10T06:57:01.146Z,22.46
2023-04-10T06:59:36.114Z,22.26
2023-04-10T07:02:09.817Z,22.19
2023-04-10T07:04:43.998Z,21.75
2023-04-10T07:07:19.682Z,21.12
2023-04-10T07:09:53.848Z,20.40
2023-04-10T07:12:27.533Z,19.82
2023-04-10T07:15:01.134Z,19.38
2023-04-10T07:17:34.930Z,18.85
2023-04-10T07:20:10.678Z,18.43
2023-04-10T07:22:44.431Z,18.20
2023-04-10T07:25:18.785Z,18.09
2023-04-10T07:27:53.094Z,17.84
2023-04-10T07:30:26.934Z,17.54
2023-04-10T07:33:01.471Z,17.32
2023-04-10T07:35:35.624Z,17.25
2023-04-10T07:38:09.383Z,17.23
2023-04-10T07:40:44.932Z,17.20
2023-04-10T07:43:23.599Z,17.18
2023-04-10T07:45:57.751Z,17.17
2023-04-10T07:48:32.150Z,17.13
2023-04-10T07:51:06.238Z,17.08
2023-04-10T07:53:40.299Z,17.06
2023-04-10T07:56:19.802Z,17.03
2023-04-10T07:58:56.287Z,16.90
2023-04-10T08:01:30.686Z,16.73
2023-04-10T08:04:06.637Z,16.56
2023-04-10T08:06:41.351Z,16.46
2023-04-10T08:09:15.252Z,16.23
2023-04-10T08:11:49.556Z,16.07
2023-04-10T08:14:23.543Z,15.92
2023-04-10T08:16:58.154Z,15.75
2023-04-10T08:19:33.122Z,15.64
2023-04-10T08:22:08.197Z,15.53
2023-04-10T08:24:42.443Z,15.44
2023-04-10T08:27:21.619Z,15.37
2023-04-10T08:29:55.988Z,15.32
2023-04-10T08:32:31.037Z,15.30
2023-04-10T08:35:05.572Z,15.25
2023-04-10T08:37:39.407Z,15.23
2023-04-10T08:40:14.622Z,15.21
2023-04-10T08:42:48.677Z,15.22
2023-04-10T08:45:22.517Z,15.25
2023-04-10T08:47:59.309Z,15.18
2023-04-10T08:50:36.545Z,15.06
2023-04-10T08:53:13.315Z,15.01
2023-04-10T08:55:46.173Z,14.99
2023-04-10T08:58:20.109Z,14.97
2023-04-10T09:00:54.127Z,14.99
2023-04-10T09:03:28.300Z,15.07
2023-04-10T09:06:04.490Z,15.12
2023-04-10T09:08:38.398Z,15.22
2023-04-10T09:11:13.732Z,15.29
2023-04-10T09:13:48.404Z,15.33
2023-04-10T09:16:22.294Z,15.37
2023-04-10T09:18:56.583Z,15.42
2023-04-10T09:21:30.363Z,15.49
2023-04-10T09:24:05.390Z,15.51
2023-04-10T09:26:40.473Z,15.55
2023-04-10T09:29:14.301Z,15.59
2023-04-10T09:31:51.359Z,15.63
2023-04-10T09:34:29.870Z,15.69
2023-04-10T09:37:09.716Z,15.72
2023-04-10T09:39:44.397Z,15.72
2023-04-10T09:42:18.647Z,15.70
2023-04-10T09:44:56.116Z,15.69
2023-04-10T09:47:31.294Z,15.71
2023-04-10T09:50:05.652Z,15.70
2023-04-10T09:52:39.891Z,15.73
2023-04-10T09:55:21.401Z,15.77
2023-04-10T09:57:56.348Z,15.81
2023-04-10T10:00:33.460Z,15.86
2023-04-10T10:03:12.421Z,15.87
2023-04-10T10:05:47.557Z,15.86
2023-04-10T10:08:21.640Z,15.88
2023-04-10T10:10:57.376Z,15.89
2023-04-10T10:13:35.583Z,15.90
2023-04-10T10:16:17.122Z,15.93
2023-04-10T10:18:57.191Z,15.91
2023-04-10T10:21:34.456Z,15.85
2023-04-10T10:24:11.793Z,15.76
2023-04-10T10:26:47.211Z,15.62
2023-04-10T10:29:21.561Z,15.54
2023-04-10T10:31:57.321Z,15.48
2023-04-10T10:34:31.341Z,15.43
2023-04-10T10:37:06.661Z,15.30
2023-04-10T10:39:50.856Z,15.09
2023-04-10T10:42:28.490Z,14.93
2023-04-10T10:45:10.295Z,14.83
2023-04-10T10:47:50.151Z,14.78
2023-04-10T10:50:25.130Z,14.77
2023-04-10T10:52:59.803Z,14.74
2023-04-10T10:55:44.768Z,14.71
2023-04-10T10:58:20.131Z,14.71
2023-04-10T11:01:12.368Z,14.67
2023-04-10T11:03:46.963Z,14.63
2023-04-10T11:06:22.388Z,14.59
2023-04-10T11:08:56.885Z,14.54
2023-04-10T11:11:31.643Z,14.50
2023-04-10T11:14:21.937Z,14.41
2023-04-10T11:16:55.882Z,14.34
2023-04-10T11:19:29.885Z,14.25
2023-04-10T11:22:11.115Z,14.23
2023-04-10T11:25:02.844Z,14.21
2023-04-10T11:27:49.383Z,14.20
2023-04-10T11:30:34.774Z,14.20
2023-04-10T11:33:09.193Z,14.20
2023-04-10T11:35:44.193Z,14.17
2023-04-10T11:38:29.111Z,14.09
2023-04-10T11:41:07.560Z,13.95
2023-04-10T11:43:42.319Z,13.77
2023-04-10T11:46:19.024Z,13.60
2023-04-10T11:48:57.109Z,13.44
2023-04-10T11:51:35.216Z,13.31
2023-04-10T11:54:24.213Z,13.20
2023-04-10T11:57:04.278Z,13.12
2023-04-10T11:59:40.284Z,13.07
2023-04-10T12:02:19.646Z,13.08
2023-04-10T12:05:01.552Z,13.07
2023-04-10T12:07:35.850Z,13.08
2023-04-10T12:10:11.572Z,13.14
2023-04-10T12:12:48.483Z,13.24
2023-04-10T12:15:33.121Z,13.31
2023-04-10T12:18:07.953Z,13.37
2023-04-10T12:20:41.995Z,13.41
2023-04-10T12:23:16.372Z,13.41
2023-04-10T12:25:52.547Z,13.41
2023-04-10T12:28:26.527Z,13.39
2023-04-10T12:31:00.907Z,13.38
2023-04-10T12:33:35.116Z,13.38
2023-04-10T12:36:09.913Z,13.36
2023-04-10T12:38:45.509Z,13.38
2023-04-10T12:41:26.734Z,13.42
2023-04-10T12:44:11.702Z,13.46
2023-04-10T12:46:46.549Z,13.44
2023-04-10T12:49:21.054Z,13.42
2023-04-10T12:51:55.547Z,13.38
2023-04-10T12:54:33.732Z,13.39
2023-04-10T12:57:09.809Z,13.39
2023-04-10T12:59:46.296Z,13.38
2023-04-10T13:02:22.013Z,13.35
2023-04-10T13:04:56.327Z,13.34
2023-04-10T13:07:30.582Z,13.33
2023-04-10T13:10:05.297Z,13.32
2023-04-10T13:12:41.565Z,13.32
2023-04-10T13:15:15.550Z,13.30
2023-04-10T13:17:50.914Z,13.28
2023-04-10T13:20:25.909Z,13.27
2023-04-10T13:22:59.931Z,13.27
2023-04-10T13:25:35.458Z,13.26
2023-04-10T13:28:12.433Z,13.28
2023-04-10T13:30:48.245Z,13.28
2023-04-10T13:33:25.447Z,13.30
2023-04-10T13:35:59.383Z,13.32
2023-04-10T13:38:34.578Z,13.34
2023-04-10T13:41:09.375Z,13.33
2023-04-10T13:43:44.078Z,13.28
2023-04-10T13:46:18.078Z,13.23
2023-04-10T13:48:52.340Z,13.20
2023-04-10T13:51:26.108Z,13.14
2023-04-10T13:54:00.403Z,13.08
2023-04-10T13:56:34.426Z,13.06
2023-04-10T13:59:08.927Z,13.04
2023-04-10T14:01:45.160Z,13.06
2023-04-10T14:04:19.217Z,13.10
2023-04-10T14:06:58.182Z,13.13
2023-04-10T14:09:31.915Z,13.16
2023-04-10T14:12:06.245Z,13.15
2023-04-10T14:14:40.221Z,13.12
2023-04-10T14:17:16.003Z,13.08
2023-04-10T14:19:52.063Z,13.02
2023-04-10T14:22:26.190Z,12.97
2023-04-10T14:25:11.719Z,12.93
2023-04-10T14:27:48.015Z,12.89
2023-04-10T14:30:21.905Z,12.87
2023-04-10T14:32:56.205Z,12.86
2023-04-10T14:35:30.252Z,12.85
2023-04-10T14:38:07.836Z,12.86
2023-04-10T14:40:50.498Z,12.87
2023-04-10T14:43:25.148Z,12.89
2023-04-10T14:46:00.113Z,12.91
2023-04-10T14:48:33.955Z,12.93
2023-04-10T14:51:13.140Z,12.93
2023-04-10T14:53:47.700Z,12.90
2023-04-10T14:56:22.944Z,12.82
2023-04-10T14:58:57.192Z,12.69
2023-04-10T15:01:37.642Z,12.59
2023-04-10T15:04:12.322Z,12.50
2023-04-10T15:07:12.933Z,12.45
2023-04-10T15:09:49.313Z,12.37
2023-04-10T15:12:23.913Z,12.33
2023-04-10T15:14:59.015Z,12.34
2023-04-10T15:17:36.882Z,12.35
2023-04-10T15:20:15.130Z,12.35
2023-04-10T15:22:50.259Z,12.35
2023-04-10T15:25:24.149Z,12.32
2023-04-10T15:28:01.927Z,12.23
2023-04-10T15:30:35.973Z,12.11
2023-04-10T15:33:10.228Z,12.04
2023-04-10T15:35:44.777Z,11.98
2023-04-10T15:38:18.950Z,11.96
2023-04-10T15:40:53.012Z,11.96
2023-04-10T15:43:31.603Z,11.99
2023-04-10T15:46:05.522Z,12.02
2023-04-10T15:48:40.208Z,12.05
2023-04-10T15:51:19.084Z,12.04
2023-04-10T15:54:05.268Z,11.99
2023-04-10T15:56:42.342Z,11.95
2023-04-10T15:59:17.695Z,11.96
2023-04-10T16:01:52.929Z,12.00
2023-04-10T16:04:27.695Z,12.02
2023-04-10T16:07:02.731Z,12.04
2023-04-10T16:09:38.529Z,12.06
2023-04-10T16:12:31.140Z,12.05
2023-04-10T16:15:15.518Z,12.03
2023-04-10T16:17:52.992Z,12.03
2023-04-10T16:20:27.720Z,12.06
2023-04-10T16:23:02.824Z,12.05
2023-04-10T16:25:36.525Z,12.06
2023-04-10T16:28:10.524Z,12.07
2023-04-10T16:30:47.763Z,12.06
2023-04-10T16:33:22.757Z,11.99
2023-04-10T16:35:59.202Z,11.89
2023-04-10T16:38:35.362Z,11.82
2023-04-10T16:41:24.190Z,11.75
2023-04-10T16:44:01.824Z,11.72
2023-04-10T16:46:36.687Z,11.76
2023-04-10T16:49:19.010Z,11.80
2023-04-10T16:51:54.471Z,11.83
2023-04-10T16:54:37.430Z,11.89
2023-04-10T16:57:26.827Z,11.93
2023-04-10T17:00:02.018Z,11.95
2023-04-10T17:02:38.849Z,11.99
2023-04-10T17:05:14.739Z,12.01
2023-04-10T17:07:50.202Z,12.04
2023-04-10T17:10:32.228Z,12.07
2023-04-10T17:13:18.240Z,12.12
2023-04-10T17:16:07.047Z,12.17
2023-04-10T17:18:41.277Z,12.21
2023-04-10T17:21:28.260Z,12.27
2023-04-10T17:24:14.350Z,12.33
2023-04-10T17:26:52.639Z,12.37
2023-04-10T17:29:27.706Z,12.39
2023-04-10T17:32:16.231Z,12.40
2023-04-10T17:35:01.075Z,12.40
2023-04-10T17:37:37.687Z,12.38
2023-04-10T17:40:16.089Z,12.38
2023-04-10T17:42:52.712Z,12.38
2023-04-10T17:45:48.932Z,12.33
2023-04-10T17:48:29.644Z,12.24
2023-04-10T17:51:14.959Z,12.18
2023-04-10T17:53:50.170Z,12.17
2023-04-10T17:56:31.841Z,12.17
2023-04-10T17:59:09.568Z,12.15
2023-04-10T18:01:46.116Z,12.12
2023-04-10T18:04:21.579Z,12.09
2023-04-10T18:06:58.970Z,12.10
2023-04-10T18:09:32.986Z,12.11
2023-04-10T18:12:20.544Z,12.12
2023-04-10T18:14:54.926Z,12.07
2023-04-10T18:17:30.214Z,11.99
2023-04-10T18:20:04.511Z,11.93
2023-04-10T18:22:40.686Z,11.90
2023-04-10T18:25:20.292Z,11.89
2023-04-10T18:28:14.446Z,11.87
2023-04-10T18:30:57.185Z,11.81
2023-04-10T18:33:32.915Z,11.78
2023-04-10T18:36:11.844Z,11.78
2023-04-10T18:38:45.962Z,11.79
2023-04-10T18:41:24.340Z,11.86
2023-04-10T18:44:05.099Z,11.96
2023-04-10T18:46:48.639Z,12.04
2023-04-10T18:49:29.636Z,12.09
2023-04-10T18:52:05.439Z,12.12
2023-04-10T18:54:40.878Z,12.13
2023-04-10T18:57:15.947Z,12.14
2023-04-10T18:59:52.069Z,12.12
2023-04-10T19:02:31.798Z,12.09
2023-04-10T19:05:18.831Z,12.08
2023-04-10T19:08:04.719Z,12.08
2023-04-10T19:10:41.503Z,12.08
2023-04-10T19:13:24.174Z,12.08
2023-04-10T19:16:15.490Z,12.12
2023-04-10T19:18:53.134Z,12.17
2023-04-10T19:21:29.413Z,12.18
2023-04-10T19:24:04.959Z,12.19
2023-04-10T19:26:42.849Z,12.22
2023-04-10T19:29:18.551Z,12.23
2023-04-10T19:31:55.002Z,12.26
2023-04-10T19:34:30.254Z,12.26
2023-04-10T19:37:08.375Z,12.21
2023-04-10T19:39:47.846Z,12.19
2023-04-10T19:42:28.490Z,12.13
2023-04-10T19:45:05.121Z,12.10
2023-04-10T19:47:44.383Z,12.09
2023-04-10T19:50:21.890Z,12.08
2023-04-10T19:52:59.478Z,12.01
2023-04-10T19:55:42.469Z,11.98
2023-04-10T19:58:35.906Z,11.96
2023-04-10T20:01:21.061Z,11.93
2023-04-10T20:03:59.616Z,11.95
2023-04-10T20:06:44.136Z,12.00
2023-04-10T20:09:22.773Z,12.05
2023-04-10T20:11:57.678Z,12.09
2023-04-10T20:14:35.418Z,12.11
2023-04-10T20:17:12.846Z,12.12
2023-04-10T20:19:47.471Z,12.10
2023-04-10T20:22:24.553Z,12.07
2023-04-10T20:24:58.826Z,12.05
2023-04-10T20:27:34.032Z,12.06
2023-04-10T20:30:13.077Z,12.07
2023-04-10T20:32:48.227Z,12.09
2023-04-10T20:35:25.371Z,12.13
2023-04-10T20:37:58.976Z,12.18
2023-04-10T20:40:33.447Z,12.21
2023-04-10T20:43:12.438Z,12.21
2023-04-10T20:45:46.494Z,12.21
2023-04-10T20:48:22.452Z,12.16
2023-04-10T20:50:56.729Z,12.11
2023-04-10T20:53:30.865Z,12.06
2023-04-10T20:56:06.310Z,12.02
2023-04-10T20:58:40.349Z,11.95
2023-04-10T21:01:14.478Z,11.86
2023-04-10T21:03:48.408Z,11.81
2023-04-10T21:06:25.207Z,11.79
2023-04-10T21:08:57.086Z,11.78
2023-04-10T21:11:34.012Z,11.76
2023-04-10T21:14:06.093Z,11.76
2023-04-10T21:16:42.963Z,11.74
2023-04-10T21:19:15.125Z,11.72
2023-04-10T21:21:50.610Z,11.70
2023-04-10T21:24:25.400Z,11.68
2023-04-10T21:26:59.410Z,11.70
2023-04-10T21:29:34.433Z,11.73
2023-04-10T21:32:11.825Z,11.78
2023-04-10T21:34:50.523Z,11.81
2023-04-10T21:37:28.549Z,11.85
2023-04-10T21:40:05.743Z,11.90
2023-04-10T21:42:42.234Z,11.93
2023-04-10T21:45:17.681Z,11.93
2023-04-10T21:47:52.185Z,11.92
2023-04-10T21:50:27.405Z,11.94
2023-04-10T21:53:01.229Z,11.94
2023-04-10T21:55:38.527Z,11.95
2023-04-10T21:58:14.840Z,11.96
2023-04-10T22:00:51.981Z,12.00
2023-04-10T22:03:27.758Z,12.01
2023-04-10T22:06:03.286Z,12.01
2023-04-10T22:08:41.662Z,12.03
2023-04-10T22:11:16.113Z,12.05
2023-04-10T22:13:50.121Z,12.05
2023-04-10T22:16:24.588Z,12.06
2023-04-10T22:18:58.777Z,12.07
2023-04-10T22:21:32.857Z,12.08
2023-04-10T22:24:07.009Z,12.08
2023-04-10T22:26:42.617Z,12.08
2023-04-10T22:29:16.716Z,12.08
2023-04-10T22:31:50.684Z,12.12
2023-04-10T22:34:24.149Z,12.16
2023-04-10T22:36:58.197Z,12.14
2023-04-10T22:39:32.225Z,12.10
2023-04-10T22:42:06.085Z,12.09
2023-04-10T22:44:39.903Z,12.10
2023-04-10T22:47:14.188Z,12.09
2023-04-10T22:49:47.835Z,12.06
2023-04-10T22:52:21.781Z,12.04
2023-04-10T22:54:55.552Z,12.06
2023-04-10T22:57:29.548Z,12.06
2023-04-10T23:00:04.360Z,12.01
2023-04-10T23:02:38.775Z,11.99
2023-04-10T23:05:13.367Z,11.97
2023-04-10T23:07:47.132Z,11.96
2023-04-10T23:10:21.994Z,11.96
2023-04-10T23:12:56.078Z,11.97
2023-04-10T23:15:29.848Z,11.98
2023-04-10T23:18:04.288Z,11.97
2023-04-10T23:20:38.998Z,11.97
2023-04-10T23:23:12.908Z,11.94
2023-04-10T23:25:46.543Z,11.91
2023-04-10T23:28:20.283Z,11.88
2023-04-10T23:30:53.929Z,11.82
2023-04-10T23:33:27.756Z,11.77
2023-04-10T23:36:01.520Z,11.76
2023-04-10T23:38:35.288Z,11.76
2023-04-10T23:41:09.727Z,11.75
2023-04-10T23:43:43.590Z,11.73
2023-04-10T23:46:17.652Z,11.76
2023-04-10T23:48:52.175Z,11.82
2023-04-10T23:51:27.364Z,11.86
2023-04-10T23:54:01.197Z,11.86
2023-04-10T23:56:35.255Z,11.87
2023-04-10T23:59:08.937Z,11.84
